Time;durP1;ratioP1;P1;durP2;ratioP2;P2;SDS_P1;SDS_P2;PMS_P1;PMS_P2;Temp;Humidity;BMP_temperature;BMP_pressure;BME280_temperature;BME280_humidity;BME280_pressure;Samples;Min_cycle;Max_cycle;Signal;HPM_P1;HPM_P2
2021/04/24 00:00:15;;;;;;;9.13;5.73;;;9.20;61.10;;;;;;5062888;28;20457;-45
2021/04/24 00:02:43;;;;;;;10.07;6.43;;;9.10;61.30;;;;;;5044643;28;21883;-45
2021/04/24 00:05:30;;;;;;;8.90;6.17;;;9.10;61.40;;;;;;5045356;28;20462;-45
2021/04/24 00:07:59;;;;;;;10.67;6.30;;;9.10;61.60;;;;;;5030967;28;20462;-45
2021/04/24 00:10:26;;;;;;;9.33;6.40;;;9.10;61.80;;;;;;5040513;28;20466;-44
2021/04/24 00:12:53;;;;;;;10.40;6.30;;;9.00;61.70;;;;;;5046412;28;20487;-45
2021/04/24 00:15:19;;;;;;;11.70;6.50;;;9.00;61.80;;;;;;5046378;28;21110;-45
2021/04/24 00:17:46;;;;;;;13.70;7.33;;;9.00;62.10;;;;;;5046354;28;20462;-45
2021/04/24 00:20:18;;;;;;;10.70;6.60;;;8.90;62.00;;;;;;5046518;28;20458;-44
2021/04/24 00:22:45;;;;;;;13.27;7.30;;;8.90;61.90;;;;;;5028928;28;20462;-45
2021/04/24 00:25:12;;;;;;;10.60;6.67;;;8.90;61.90;;;;;;5047273;28;21277;-45
2021/04/24 00:27:39;;;;;;;9.23;6.23;;;8.90;62.00;;;;;;5050232;28;20462;-44
2021/04/24 00:30:08;;;;;;;9.97;8.20;;;8.80;61.90;;;;;;5049705;28;20546;-45
2021/04/24 00:32:34;;;;;;;9.40;6.70;;;8.80;62.00;;;;;;5047621;28;20517;-45
2021/04/24 00:35:01;;;;;;;7.03;6.03;;;8.70;62.10;;;;;;5050856;28;21132;-44
2021/04/24 00:37:27;;;;;;;8.73;6.07;;;8.70;62.30;;;;;;5048498;28;20501;-45
2021/04/24 00:39:54;;;;;;;11.43;6.20;;;8.70;62.40;;;;;;5050143;28;20534;-45
2021/04/24 00:42:21;;;;;;;7.80;5.97;;;8.70;62.30;;;;;;5050221;28;20466;-45
2021/04/24 00:44:49;;;;;;;9.27;5.83;;;8.70;62.40;;;;;;5051581;28;20516;-45
2021/04/24 00:47:17;;;;;;;9.07;5.83;;;8.60;62.50;;;;;;5050479;28;20827;-45
2021/04/24 00:49:43;;;;;;;11.43;5.90;;;8.60;62.50;;;;;;5049877;28;20485;-45
2021/04/24 00:52:09;;;;;;;7.80;6.23;;;8.50;62.70;;;;;;5048829;28;20994;-44
2021/04/24 00:54:36;;;;;;;9.60;6.30;;;8.50;62.80;;;;;;5048203;28;20455;-44
2021/04/24 00:57:03;;;;;;;9.10;6.17;;;8.40;63.00;;;;;;5049573;28;20983;-44
2021/04/24 00:59:30;;;;;;;9.83;5.90;;;8.40;63.00;;;;;;5048459;28;20450;-45
2021/04/24 01:01:56;;;;;;;8.57;5.93;;;8.40;62.90;;;;;;5050705;28;21076;-44
2021/04/24 01:04:23;;;;;;;13.40;6.83;;;8.40;62.90;;;;;;5049332;28;20872;-44
2021/04/24 01:06:49;;;;;;;8.93;6.07;;;8.30;63.00;;;;;;5033357;28;20788;-45
2021/04/24 01:09:16;;;;;;;8.13;5.70;;;8.30;63.10;;;;;;5049693;28;20465;-44
2021/04/24 01:11:42;;;;;;;9.00;6.60;;;8.30;63.10;;;;;;5055464;28;20486;-44
2021/04/24 01:14:09;;;;;;;11.47;6.20;;;8.30;63.00;;;;;;5043430;28;20454;-45
2021/04/24 01:16:35;;;;;;;10.30;7.20;;;8.20;63.40;;;;;;5046137;28;20495;-45
2021/04/24 01:19:02;;;;;;;8.17;5.73;;;8.20;63.50;;;;;;5047571;28;20810;-45
2021/04/24 01:21:29;;;;;;;10.67;6.40;;;8.10;63.10;;;;;;5050551;28;20973;-44
2021/04/24 01:23:56;;;;;;;12.13;6.57;;;8.10;63.30;;;;;;5047303;28;20455;-45
2021/04/24 01:26:22;;;;;;;12.93;6.67;;;8.00;63.50;;;;;;5063636;28;20463;-44
2021/04/24 01:28:48;;;;;;;8.87;6.33;;;8.00;63.70;;;;;;5047815;28;20466;-45
2021/04/24 01:31:15;;;;;;;12.10;6.67;;;8.00;63.80;;;;;;5050539;28;20442;-45
2021/04/24 01:33:42;;;;;;;8.60;5.97;;;8.00;63.90;;;;;;5050602;28;20464;-45
2021/04/24 01:36:10;;;;;;;9.23;5.77;;;8.00;64.10;;;;;;5047777;28;20469;-44
2021/04/24 01:38:37;;;;;;;14.33;8.47;;;7.90;64.10;;;;;;5051108;28;20454;-44
2021/04/24 01:41:06;;;;;;;9.47;5.90;;;7.90;64.20;;;;;;5044545;28;20944;-45
2021/04/24 01:43:35;;;;;;;9.37;6.97;;;7.90;64.10;;;;;;5048030;28;20463;-45
2021/04/24 01:46:02;;;;;;;10.63;7.17;;;7.90;64.10;;;;;;5048739;28;20462;-44
2021/04/24 01:48:28;;;;;;;9.27;6.03;;;7.80;64.10;;;;;;5049353;28;20474;-45
2021/04/24 01:50:54;;;;;;;8.20;6.77;;;7.80;64.00;;;;;;5051329;28;20442;-44
2021/04/24 01:53:22;;;;;;;6.60;5.30;;;7.80;63.90;;;;;;5047401;28;20490;-44
2021/04/24 01:55:50;;;;;;;9.90;6.10;;;7.70;63.90;;;;;;5045929;28;20469;-45
2021/04/24 01:58:20;;;;;;;9.13;7.07;;;7.70;64.20;;;;;;5048717;28;20466;-45
2021/04/24 02:00:53;;;;;;;15.00;6.70;;;7.70;64.20;;;;;;5047893;28;20501;-45
2021/04/24 02:03:19;;;;;;;10.83;7.37;;;7.60;64.50;;;;;;5049191;28;20454;-44
2021/04/24 02:05:48;;;;;;;8.73;5.80;;;7.50;64.60;;;;;;5064322;28;20454;-44
2021/04/24 02:08:20;;;;;;;9.37;6.60;;;7.50;64.70;;;;;;5048221;28;20458;-44
2021/04/24 02:10:51;;;;;;;9.40;5.93;;;7.50;64.80;;;;;;5046051;28;20867;-45
2021/04/24 02:13:19;;;;;;;9.70;6.33;;;7.50;64.80;;;;;;5046564;28;20550;-45
2021/04/24 02:15:47;;;;;;;7.77;6.13;;;7.40;64.90;;;;;;5048941;28;20482;-44
2021/04/24 02:18:13;;;;;;;10.80;6.90;;;7.30;65.20;;;;;;5047916;28;20584;-45
2021/04/24 02:20:41;;;;;;;7.63;6.67;;;7.30;65.50;;;;;;5050351;28;20469;-47
2021/04/24 02:23:10;;;;;;;8.93;6.13;;;7.30;65.60;;;;;;5044899;28;20509;-46
2021/04/24 02:25:36;;;;;;;11.43;6.70;;;7.30;65.60;;;;;;5048521;28;20450;-47
2021/04/24 02:28:03;;;;;;;10.90;6.50;;;7.30;65.70;;;;;;5046356;28;20848;-46
2021/04/24 02:30:34;;;;;;;10.67;6.03;;;7.30;65.80;;;;;;5046801;28;20974;-46
2021/04/24 02:33:01;;;;;;;11.07;6.77;;;7.30;65.60;;;;;;5062841;28;20486;-46
2021/04/24 02:35:39;;;;;;;12.10;6.70;;;7.20;65.60;;;;;;5047638;28;20827;-44
2021/04/24 02:38:05;;;;;;;11.60;7.13;;;7.20;65.70;;;;;;5048652;28;20467;-44
2021/04/24 02:40:32;;;;;;;10.60;7.03;;;7.20;65.70;;;;;;5048954;28;20465;-45
2021/04/24 02:42:58;;;;;;;12.87;6.43;;;7.10;65.80;;;;;;5047528;28;20944;-45
2021/04/24 02:45:24;;;;;;;7.90;6.50;;;7.10;65.50;;;;;;5048510;28;20465;-44
2021/04/24 02:47:51;;;;;;;12.13;6.70;;;7.10;65.80;;;;;;5043994;28;20459;-45
2021/04/24 02:50:19;;;;;;;12.83;6.40;;;7.00;65.80;;;;;;5050024;28;20785;-44
2021/04/24 02:52:46;;;;;;;6.77;6.07;;;7.00;65.80;;;;;;5046659;28;20483;-44
2021/04/24 02:55:15;;;;;;;7.87;6.30;;;6.90;66.10;;;;;;5046147;28;20462;-44
2021/04/24 02:57:42;;;;;;;9.93;6.87;;;6.90;66.20;;;;;;5043162;28;20691;-45
2021/04/24 03:00:11;;;;;;;8.17;6.10;;;6.90;66.30;;;;;;5047671;28;20455;-44
2021/04/24 03:02:37;;;;;;;9.30;6.57;;;6.90;66.30;;;;;;5049101;28;20458;-45
2021/04/24 03:05:22;;;;;;;11.03;6.07;;;6.80;66.40;;;;;;5046043;28;20458;-45
2021/04/24 03:07:48;;;;;;;10.30;6.47;;;6.90;66.70;;;;;;5060097;28;20576;-45
2021/04/24 03:10:14;;;;;;;9.97;5.87;;;6.80;66.80;;;;;;5046601;28;20458;-44
2021/04/24 03:12:40;;;;;;;9.70;5.67;;;6.90;66.90;;;;;;5050520;28;20482;-45
2021/04/24 03:15:07;;;;;;;9.13;6.67;;;6.90;66.90;;;;;;5047101;28;20471;-44
2021/04/24 03:17:34;;;;;;;9.50;6.60;;;6.90;66.90;;;;;;5046722;28;20553;-44
2021/04/24 03:20:00;;;;;;;12.13;7.33;;;6.80;66.90;;;;;;5046878;28;20459;-45
2021/04/24 03:22:27;;;;;;;10.00;6.30;;;6.80;66.90;;;;;;5047385;28;20454;-44
2021/04/24 03:24:53;;;;;;;8.33;6.03;;;6.70;67.10;;;;;;5046647;28;20982;-44
2021/04/24 03:27:19;;;;;;;9.80;7.23;;;6.70;67.10;;;;;;5046903;28;20465;-44
2021/04/24 03:29:46;;;;;;;10.57;6.43;;;6.70;67.00;;;;;;5048085;28;20545;-44
2021/04/24 03:32:12;;;;;;;10.60;7.13;;;6.70;67.00;;;;;;5046504;28;20549;-44
2021/04/24 03:34:38;;;;;;;11.00;6.60;;;6.70;67.10;;;;;;5047257;28;20544;-44
2021/04/24 03:37:05;;;;;;;9.13;6.33;;;6.60;67.30;;;;;;5061996;28;20462;-44
2021/04/24 03:39:31;;;;;;;12.00;6.57;;;6.60;67.40;;;;;;5048188;28;20999;-43
2021/04/24 03:41:57;;;;;;;13.40;6.57;;;6.60;67.40;;;;;;5047601;28;20466;-44
2021/04/24 03:44:24;;;;;;;8.13;5.70;;;6.60;67.40;;;;;;5047575;28;20974;-44
2021/04/24 03:46:50;;;;;;;10.37;6.53;;;6.60;67.50;;;;;;5063452;28;20466;-44
2021/04/24 03:49:17;;;;;;;13.60;7.97;;;6.50;67.40;;;;;;5047418;28;20463;-44
2021/04/24 03:51:44;;;;;;;12.70;7.70;;;6.50;67.50;;;;;;5046592;28;20450;-45
2021/04/24 03:54:10;;;;;;;10.63;7.30;;;6.50;67.50;;;;;;5046469;28;20464;-44
2021/04/24 03:56:36;;;;;;;11.60;7.90;;;6.40;67.70;;;;;;5045635;28;20458;-44
2021/04/24 03:59:03;;;;;;;13.87;7.20;;;6.40;67.70;;;;;;5043131;28;20822;-44
2021/04/24 04:01:29;;;;;;;11.23;6.83;;;6.40;67.80;;;;;;5045673;28;20810;-44
2021/04/24 04:03:56;;;;;;;8.37;7.43;;;6.40;67.80;;;;;;5044053;28;20462;-45
2021/04/24 04:06:22;;;;;;;8.77;6.50;;;6.40;67.90;;;;;;5034023;28;20443;-44
2021/04/24 04:08:48;;;;;;;10.33;7.13;;;6.30;67.80;;;;;;5060260;28;20543;-44
2021/04/24 04:11:15;;;;;;;12.43;8.80;;;6.30;67.70;;;;;;5059349;28;20823;-44
2021/04/24 04:13:41;;;;;;;11.13;6.93;;;6.30;67.50;;;;;;5046682;28;20486;-45
2021/04/24 04:16:08;;;;;;;11.07;7.40;;;6.30;67.50;;;;;;5046894;28;20486;-44
2021/04/24 04:18:37;;;;;;;8.63;5.57;;;6.20;67.80;;;;;;5045006;28;20561;-45
2021/04/24 04:21:04;;;;;;;8.50;6.20;;;6.20;67.80;;;;;;5045265;28;20532;-44
2021/04/24 04:23:31;;;;;;;11.90;6.40;;;6.20;67.90;;;;;;5044699;28;20485;-45
2021/04/24 04:25:58;;;;;;;12.07;8.63;;;6.20;68.10;;;;;;5044246;28;20469;-45
2021/04/24 04:28:25;;;;;;;15.10;9.80;;;6.20;68.30;;;;;;5044396;28;20458;-44
2021/04/24 04:30:53;;;;;;;30.10;18.27;;;6.20;68.40;;;;;;5046548;28;20460;-44
2021/04/24 04:33:20;;;;;;;34.03;20.70;;;6.20;68.70;;;;;;5046368;28;21057;-45
2021/04/24 04:35:47;;;;;;;33.40;18.97;;;6.20;68.70;;;;;;5044296;28;20450;-44
2021/04/24 04:38:14;;;;;;;27.10;17.37;;;6.20;68.80;;;;;;5046578;28;20487;-44
2021/04/24 04:40:42;;;;;;;22.17;15.13;;;6.10;68.80;;;;;;5046003;28;20465;-44
2021/04/24 04:43:09;;;;;;;17.60;11.30;;;6.20;68.90;;;;;;5043813;28;20461;-45
2021/04/24 04:45:36;;;;;;;19.47;10.40;;;6.20;69.20;;;;;;5060381;28;20460;-44
2021/04/24 04:48:04;;;;;;;13.00;8.47;;;6.20;69.10;;;;;;5043456;28;20468;-44
2021/04/24 04:50:36;;;;;;;17.10;10.40;;;6.20;69.20;;;;;;5047169;28;20476;-44
2021/04/24 04:53:02;;;;;;;18.27;10.90;;;6.20;69.20;;;;;;5043418;28;21022;-44
2021/04/24 04:55:29;;;;;;;26.80;13.63;;;6.20;69.20;;;;;;5044201;28;20541;-44
2021/04/24 04:57:56;;;;;;;33.47;18.80;;;6.20;69.30;;;;;;5043169;28;20803;-44
2021/04/24 05:00:24;;;;;;;40.90;19.20;;;6.20;69.50;;;;;;5047545;28;20447;-45
2021/04/24 05:02:51;;;;;;;37.33;18.90;;;6.30;69.60;;;;;;5047680;28;20465;-44
2021/04/24 05:05:18;;;;;;;28.17;16.73;;;6.20;69.50;;;;;;5045176;28;21185;-45
2021/04/24 05:07:45;;;;;;;19.90;9.60;;;6.30;69.40;;;;;;5046159;28;20465;-45
2021/04/24 05:10:23;;;;;;;13.93;9.10;;;6.30;69.50;;;;;;5041151;28;20462;-45
2021/04/24 05:12:49;;;;;;;13.10;7.97;;;6.30;69.40;;;;;;5050570;28;20486;-45
2021/04/24 05:15:17;;;;;;;12.97;8.00;;;6.30;69.50;;;;;;5049728;28;20470;-44
2021/04/24 05:17:44;;;;;;;13.47;8.17;;;6.30;69.60;;;;;;5051871;28;20870;-44
2021/04/24 05:20:11;;;;;;;12.93;7.53;;;6.30;69.60;;;;;;5050449;28;20802;-45
2021/04/24 05:22:38;;;;;;;13.63;7.10;;;6.30;69.60;;;;;;5051194;28;20493;-46
2021/04/24 05:25:06;;;;;;;15.67;7.53;;;6.40;69.80;;;;;;5050986;28;20943;-46
2021/04/24 05:27:33;;;;;;;13.97;8.30;;;6.50;69.90;;;;;;5050405;28;20494;-46
2021/04/24 05:29:59;;;;;;;15.73;7.57;;;6.50;69.90;;;;;;5049590;28;20454;-46
2021/04/24 05:32:26;;;;;;;20.77;8.13;;;6.50;69.90;;;;;;5050645;28;20804;-46
2021/04/24 05:34:52;;;;;;;12.93;7.70;;;6.60;69.90;;;;;;5065593;28;20447;-46
2021/04/24 05:37:18;;;;;;;14.27;7.80;;;6.60;70.00;;;;;;5051753;28;20461;-44
2021/04/24 05:39:45;;;;;;;10.87;7.47;;;6.70;70.30;;;;;;5047892;28;20462;-44
2021/04/24 05:42:12;;;;;;;11.43;7.23;;;6.70;70.30;;;;;;5065449;28;20466;-44
2021/04/24 05:44:39;;;;;;;12.10;7.63;;;6.80;70.50;;;;;;5056815;28;20956;-44
2021/04/24 05:47:06;;;;;;;12.63;8.50;;;6.80;70.50;;;;;;5046191;28;20936;-44
2021/04/24 05:49:33;;;;;;;11.60;7.80;;;6.90;70.70;;;;;;5046872;28;20455;-46
2021/04/24 05:52:01;;;;;;;12.60;8.80;;;7.00;70.70;;;;;;5045624;28;20458;-44
2021/04/24 05:54:27;;;;;;;15.23;9.17;;;7.00;70.70;;;;;;5048432;28;20800;-44
2021/04/24 05:56:54;;;;;;;15.83;9.10;;;7.10;70.80;;;;;;5045322;28;20465;-45
2021/04/24 05:59:20;;;;;;;13.00;8.93;;;7.10;70.80;;;;;;5048663;28;20447;-44
2021/04/24 06:01:47;;;;;;;14.13;8.73;;;7.20;70.90;;;;;;5050000;28;20719;-44
2021/04/24 06:04:15;;;;;;;15.33;9.20;;;7.30;70.90;;;;;;5049947;28;20763;-44
2021/04/24 06:06:42;;;;;;;16.47;9.60;;;7.40;70.70;;;;;;5046967;28;21168;-44
2021/04/24 06:09:08;;;;;;;12.80;8.87;;;7.50;70.00;;;;;;5065485;28;20465;-44
2021/04/24 06:11:35;;;;;;;13.43;9.47;;;7.70;69.40;;;;;;5047569;28;20443;-44
2021/04/24 06:14:03;;;;;;;13.00;9.67;;;7.80;68.60;;;;;;5064881;28;20483;-44
2021/04/24 06:16:30;;;;;;;16.27;10.00;;;8.00;68.10;;;;;;5050053;28;20478;-45
2021/04/24 06:18:56;;;;;;;17.53;9.73;;;8.10;67.80;;;;;;5048554;28;20467;-45
2021/04/24 06:21:23;;;;;;;16.67;10.40;;;8.30;67.50;;;;;;5046655;28;20457;-45
2021/04/24 06:23:49;;;;;;;16.20;9.83;;;8.40;67.40;;;;;;5048542;28;20454;-45
2021/04/24 06:26:17;;;;;;;14.20;9.17;;;8.60;67.00;;;;;;5064749;28;20456;-45
2021/04/24 06:28:44;;;;;;;15.23;9.73;;;8.80;65.60;;;;;;5045745;28;20454;-44
2021/04/24 06:31:10;;;;;;;15.80;9.90;;;8.90;64.30;;;;;;5047308;28;20458;-44
2021/04/24 06:33:37;;;;;;;12.87;9.00;;;9.10;63.90;;;;;;5063928;28;20527;-44
2021/04/24 06:36:04;;;;;;;13.20;9.57;;;9.20;63.40;;;;;;5050242;28;20463;-45
2021/04/24 06:38:31;;;;;;;17.60;9.67;;;9.40;63.10;;;;;;5048174;28;20973;-45
2021/04/24 06:40:57;;;;;;;12.57;8.87;;;9.50;62.20;;;;;;5050439;28;20483;-45
2021/04/24 06:43:24;;;;;;;13.87;9.80;;;9.60;61.90;;;;;;5050960;28;21040;-45
2021/04/24 06:45:50;;;;;;;22.63;10.30;;;9.80;61.90;;;;;;5048542;28;20454;-45
2021/04/24 06:48:16;;;;;;;14.57;9.53;;;9.90;61.20;;;;;;5046303;28;20459;-45
2021/04/24 06:50:42;;;;;;;12.00;8.60;;;10.10;60.70;;;;;;5047287;28;20462;-45
2021/04/24 06:53:09;;;;;;;13.93;9.60;;;10.20;60.80;;;;;;5048543;28;20924;-45
2021/04/24 06:55:35;;;;;;;13.73;9.40;;;10.40;60.50;;;;;;5055815;28;20459;-45
2021/04/24 06:58:02;;;;;;;17.23;9.73;;;10.60;59.90;;;;;;5064772;28;20466;-45
2021/04/24 07:00:28;;;;;;;19.60;10.30;;;10.80;59.30;;;;;;5049272;28;20939;-45
2021/04/24 07:02:54;;;;;;;14.17;9.53;;;11.00;58.60;;;;;;5048910;28;20490;-45
2021/04/24 07:05:20;;;;;;;13.67;8.57;;;11.20;58.70;;;;;;5064676;28;20470;-45
2021/04/24 07:07:47;;;;;;;16.67;11.30;;;11.30;58.60;;;;;;5049225;28;20549;-45
2021/04/24 07:10:13;;;;;;;18.17;10.03;;;11.50;58.00;;;;;;5047410;28;20465;-44
2021/04/24 07:12:40;;;;;;;14.07;10.10;;;11.70;57.00;;;;;;5047576;28;20573;-45
2021/04/24 07:15:08;;;;;;;15.80;9.37;;;11.90;56.00;;;;;;5049343;28;20536;-44
2021/04/24 07:17:35;;;;;;;12.50;8.30;;;12.10;56.00;;;;;;5048120;28;20474;-44
2021/04/24 07:20:03;;;;;;;14.23;9.93;;;12.20;55.30;;;;;;5051972;28;20825;-44
2021/04/24 07:22:30;;;;;;;13.07;9.63;;;12.40;55.00;;;;;;5047831;28;20885;-44
2021/04/24 07:24:56;;;;;;;13.87;10.70;;;12.50;54.90;;;;;;5045412;28;20498;-44
2021/04/24 07:27:22;;;;;;;17.80;9.73;;;12.70;54.80;;;;;;5047459;28;20454;-44
2021/04/24 07:29:48;;;;;;;17.77;11.47;;;12.90;54.60;;;;;;5045413;28;20461;-44
2021/04/24 07:32:15;;;;;;;17.30;9.53;;;13.00;54.40;;;;;;5063523;28;21065;-45
2021/04/24 07:34:41;;;;;;;14.33;9.07;;;13.20;54.10;;;;;;5064538;28;20455;-45
2021/04/24 07:37:08;;;;;;;17.03;10.47;;;13.40;53.50;;;;;;5045571;28;20974;-45
2021/04/24 07:39:34;;;;;;;15.53;11.10;;;13.50;53.00;;;;;;5041421;28;20470;-45
2021/04/24 07:42:00;;;;;;;11.23;8.70;;;13.60;52.90;;;;;;5043842;28;20450;-45
2021/04/24 07:44:28;;;;;;;17.37;9.63;;;13.80;52.90;;;;;;5048739;28;20911;-45
2021/04/24 07:46:55;;;;;;;13.67;10.43;;;13.90;52.20;;;;;;5045612;28;20466;-45
2021/04/24 07:49:21;;;;;;;15.90;9.93;;;14.10;51.80;;;;;;5050046;28;20451;-45
2021/04/24 07:51:47;;;;;;;17.67;9.83;;;14.30;51.30;;;;;;5049462;28;20541;-45
2021/04/24 07:54:15;;;;;;;20.40;8.90;;;14.40;50.60;;;;;;5047388;28;21115;-45
2021/04/24 07:56:42;;;;;;;15.00;8.63;;;14.70;49.70;;;;;;5049809;28;20455;-45
2021/04/24 07:59:10;;;;;;;15.27;10.20;;;14.90;50.20;;;;;;5064743;28;20450;-45
2021/04/24 08:01:40;;;;;;;16.60;9.50;;;15.10;49.90;;;;;;5049093;28;20450;-45
2021/04/24 08:04:07;;;;;;;13.90;9.07;;;15.30;49.00;;;;;;5052761;28;20466;-47
2021/04/24 08:06:36;;;;;;;13.90;9.10;;;15.50;48.20;;;;;;5047710;28;20783;-46
2021/04/24 08:09:04;;;;;;;20.47;9.47;;;15.70;48.20;;;;;;5048859;28;20446;-46
2021/04/24 08:11:31;;;;;;;17.93;9.80;;;15.80;48.20;;;;;;5050012;28;20471;-45
2021/04/24 08:13:57;;;;;;;15.70;10.37;;;16.00;47.80;;;;;;5047548;28;20490;-44
2021/04/24 08:16:23;;;;;;;18.43;10.77;;;16.10;46.00;;;;;;5063579;28;20482;-44
2021/04/24 08:18:49;;;;;;;21.23;13.70;;;16.20;45.10;;;;;;5049031;28;20465;-45
2021/04/24 08:21:17;;;;;;;23.90;14.53;;;16.40;44.70;;;;;;5049380;28;20494;-44
2021/04/24 08:23:43;;;;;;;17.30;11.60;;;16.50;44.70;;;;;;5046380;28;20454;-44
2021/04/24 08:26:10;;;;;;;14.30;9.87;;;16.60;45.10;;;;;;5048841;28;20909;-45
2021/04/24 08:28:37;;;;;;;14.40;9.33;;;16.70;44.80;;;;;;5049865;28;20890;-45
2021/04/24 08:31:04;;;;;;;13.57;9.30;;;16.90;43.80;;;;;;5049130;28;20949;-45
2021/04/24 08:33:30;;;;;;;13.70;9.90;;;17.00;43.20;;;;;;5047027;28;20481;-44
2021/04/24 08:35:56;;;;;;;16.43;10.00;;;17.20;43.70;;;;;;5050739;28;20454;-44
2021/04/24 08:38:23;;;;;;;17.57;10.00;;;17.40;43.80;;;;;;5051245;28;20467;-45
2021/04/24 08:40:51;;;;;;;15.37;10.30;;;17.60;43.00;;;;;;5047593;28;20904;-45
2021/04/24 08:43:18;;;;;;;13.17;9.43;;;17.80;42.80;;;;;;5049909;28;20803;-45
2021/04/24 08:45:46;;;;;;;15.87;10.97;;;18.00;42.50;;;;;;5047502;28;20468;-46
2021/04/24 08:48:12;;;;;;;16.83;10.17;;;18.20;42.20;;;;;;5051110;28;20458;-46
2021/04/24 08:50:39;;;;;;;19.87;11.40;;;18.40;41.60;;;;;;5051924;28;20455;-46
2021/04/24 08:53:05;;;;;;;11.93;9.30;;;18.50;41.30;;;;;;5053194;28;20482;-46
2021/04/24 08:55:35;;;;;;;18.57;10.67;;;18.70;40.90;;;;;;5051650;28;20446;-46
2021/04/24 08:58:04;;;;;;;17.80;11.20;;;19.00;40.70;;;;;;5050962;28;20443;-46
2021/04/24 09:00:37;;;;;;;15.47;10.07;;;19.20;40.40;;;;;;5047522;28;20889;-46
2021/04/24 09:03:08;;;;;;;15.70;10.67;;;19.40;40.10;;;;;;5051124;28;20457;-46
2021/04/24 09:05:35;;;;;;;15.77;9.73;;;19.70;40.40;;;;;;5031581;28;20537;-46
2021/04/24 09:08:06;;;;;;;12.83;9.00;;;20.00;39.40;;;;;;5049938;28;20458;-46
2021/04/24 09:10:39;;;;;;;13.83;9.10;;;20.40;37.90;;;;;;5052246;28;20452;-46
2021/04/24 09:13:06;;;;;;;15.77;9.73;;;20.70;37.30;;;;;;5052641;28;20513;-46
2021/04/24 09:15:33;;;;;;;12.90;9.17;;;20.90;37.60;;;;;;5051325;28;20470;-46
2021/04/24 09:18:00;;;;;;;13.87;10.37;;;21.30;37.40;;;;;;5055265;28;20458;-46
2021/04/24 09:20:30;;;;;;;17.93;9.97;;;21.60;35.50;;;;;;5051522;28;20458;-46
2021/04/24 09:23:06;;;;;;;14.83;9.13;;;21.90;35.70;;;;;;5047380;28;20982;-46
2021/04/24 09:25:36;;;;;;;17.57;10.60;;;22.20;35.70;;;;;;5051271;28;20443;-46
2021/04/24 09:28:04;;;;;;;14.67;9.90;;;22.60;35.50;;;;;;5051292;28;20446;-46
2021/04/24 09:30:34;;;;;;;15.60;10.40;;;23.00;34.60;;;;;;5052143;28;20446;-46
2021/04/24 09:33:12;;;;;;;14.50;9.83;;;23.40;34.10;;;;;;5047106;28;20513;-46
2021/04/24 09:35:43;;;;;;;16.53;11.20;;;23.70;33.40;;;;;;5051035;28;20470;-46
2021/04/24 09:38:15;;;;;;;13.97;10.13;;;24.00;32.90;;;;;;5047457;28;20485;-46
2021/04/24 09:40:41;;;;;;;15.83;10.40;;;24.30;32.40;;;;;;5046830;28;20477;-46
2021/04/24 09:43:08;;;;;;;17.57;10.97;;;24.60;32.20;;;;;;5051716;28;20542;-46
2021/04/24 09:45:41;;;;;;;14.53;10.57;;;24.80;31.80;;;;;;5045954;28;21155;-46
2021/04/24 09:48:26;;;;;;;11.90;9.67;;;24.90;31.90;;;;;;5045751;28;20512;-46
2021/04/24 09:50:53;;;;;;;14.63;9.47;;;25.10;30.80;;;;;;5047010;28;20555;-46
2021/04/24 09:53:25;;;;;;;15.10;9.57;;;25.20;30.50;;;;;;5048646;28;20852;-46
2021/04/24 09:55:53;;;;;;;14.93;9.30;;;25.40;30.20;;;;;;5064777;28;20460;-46
2021/04/24 09:58:34;;;;;;;18.20;10.20;;;25.60;29.20;;;;;;5049919;28;20521;-46
2021/04/24 10:01:27;;;;;;;15.60;10.60;;;25.70;29.40;;;;;;5048403;28;20449;-46
2021/04/24 10:03:54;;;;;;;18.90;11.40;;;26.00;29.50;;;;;;5065639;28;20472;-46
2021/04/24 10:06:23;;;;;;;14.90;10.63;;;26.10;29.00;;;;;;5050492;28;20468;-46
2021/04/24 10:08:51;;;;;;;14.10;10.60;;;26.20;28.80;;;;;;5048353;28;20473;-46
2021/04/24 10:11:28;;;;;;;13.93;9.87;;;26.30;28.70;;;;;;5044795;28;20512;-46
2021/04/24 10:13:54;;;;;;;13.10;9.40;;;26.50;28.80;;;;;;5051282;28;20481;-46
2021/04/24 10:16:34;;;;;;;14.27;10.63;;;26.60;29.00;;;;;;5046295;28;20492;-46
2021/04/24 10:19:27;;;;;;;19.50;11.27;;;26.70;28.40;;;;;;5046687;28;20454;-46
2021/04/24 10:21:54;;;;;;;13.27;10.50;;;26.90;28.40;;;;;;5046709;28;20462;-46
2021/04/24 10:24:23;;;;;;;13.23;10.10;;;27.00;28.30;;;;;;5049073;28;20464;-45
2021/04/24 10:26:50;;;;;;;12.70;9.87;;;27.00;28.20;;;;;;5047982;28;20458;-46
2021/04/24 10:29:18;;;;;;;15.57;10.10;;;27.00;28.60;;;;;;5064854;28;20465;-46
2021/04/24 10:31:44;;;;;;;15.03;10.77;;;26.80;28.80;;;;;;5049253;28;20457;-46
2021/04/24 10:34:12;;;;;;;14.40;10.80;;;26.60;29.10;;;;;;5061881;28;20532;-46
2021/04/24 10:36:38;;;;;;;14.40;10.33;;;26.50;29.50;;;;;;5046802;28;20453;-46
2021/04/24 10:39:10;;;;;;;12.30;10.07;;;26.50;28.50;;;;;;5047299;28;20460;-45
2021/04/24 10:41:43;;;;;;;20.50;11.37;;;26.30;28.50;;;;;;5048088;28;20972;-45
2021/04/24 10:44:14;;;;;;;14.30;11.20;;;26.10;29.10;;;;;;5047760;28;20469;-46
2021/04/24 10:46:48;;;;;;;12.97;10.17;;;25.80;28.90;;;;;;5046797;28;20962;-46
2021/04/24 10:49:26;;;;;;;13.10;9.70;;;25.60;29.10;;;;;;5047015;28;20459;-46
2021/04/24 10:52:09;;;;;;;14.33;10.00;;;25.40;29.50;;;;;;5042786;28;20879;-46
2021/04/24 10:54:40;;;;;;;12.40;10.37;;;25.20;30.20;;;;;;5047485;28;20497;-45
2021/04/24 10:57:41;;;;;;;12.77;9.87;;;25.10;30.90;;;;;;5049220;28;20453;-46
2021/04/24 11:00:13;;;;;;;14.87;10.10;;;25.00;30.90;;;;;;5058148;28;20485;-45
2021/04/24 11:02:40;;;;;;;18.77;11.20;;;24.80;30.90;;;;;;5046918;28;20465;-46
2021/04/24 11:05:18;;;;;;;18.27;11.70;;;24.70;30.80;;;;;;5046366;28;20473;-46
2021/04/24 11:07:45;;;;;;;20.57;11.83;;;24.60;30.90;;;;;;5049432;28;20657;-45
2021/04/24 11:10:11;;;;;;;12.63;10.80;;;24.40;30.80;;;;;;5048896;28;20454;-45
2021/04/24 11:12:41;;;;;;;17.07;10.40;;;24.20;31.40;;;;;;5047178;28;21026;-45
2021/04/24 11:15:08;;;;;;;14.73;10.80;;;24.10;31.80;;;;;;5027019;28;20458;-45
2021/04/24 11:17:37;;;;;;;17.20;10.97;;;24.00;32.20;;;;;;5063257;28;20459;-45
2021/04/24 11:20:06;;;;;;;15.23;11.00;;;23.70;31.90;;;;;;5047347;28;20965;-46
2021/04/24 11:22:37;;;;;;;17.80;11.33;;;23.30;32.00;;;;;;5044928;28;20450;-46
2021/04/24 11:25:16;;;;;;;15.43;11.17;;;23.00;32.70;;;;;;5045327;28;20465;-46
2021/04/24 11:28:06;;;;;;;16.00;10.43;;;22.80;33.60;;;;;;5047725;28;20454;-45
2021/04/24 11:30:53;;;;;;;13.20;10.37;;;22.70;34.70;;;;;;5043690;28;20847;-46
2021/04/24 11:33:49;;;;;;;12.47;9.77;;;22.60;34.80;;;;;;5045994;28;20480;-45
2021/04/24 11:36:27;;;;;;;17.80;10.97;;;22.60;34.20;;;;;;5033072;28;20469;-46
2021/04/24 11:39:04;;;;;;;19.03;10.87;;;22.60;35.00;;;;;;5047766;28;20628;-45
2021/04/24 11:41:44;;;;;;;14.47;11.37;;;22.60;34.80;;;;;;5046957;28;20550;-45
2021/04/24 11:44:24;;;;;;;12.73;9.50;;;22.50;34.10;;;;;;5048094;28;20458;-46
2021/04/24 11:46:54;;;;;;;15.97;10.57;;;22.50;34.80;;;;;;5047506;28;20454;-45
2021/04/24 11:49:23;;;;;;;14.70;10.20;;;22.50;35.10;;;;;;5049408;28;20462;-45
2021/04/24 11:51:56;;;;;;;13.90;10.23;;;22.40;34.70;;;;;;5049691;28;20469;-46
2021/04/24 11:54:39;;;;;;;19.10;11.70;;;22.40;34.00;;;;;;5061800;28;20484;-45
2021/04/24 11:57:10;;;;;;;14.57;11.03;;;22.40;34.70;;;;;;5046456;28;20451;-45
2021/04/24 11:59:39;;;;;;;14.77;10.27;;;22.40;34.30;;;;;;5047496;28;20504;-46
2021/04/24 12:02:21;;;;;;;13.73;9.50;;;22.30;34.50;;;;;;5050491;28;20447;-45
2021/04/24 12:04:59;;;;;;;15.83;10.80;;;22.30;34.70;;;;;;5046945;28;20451;-46
2021/04/24 12:07:26;;;;;;;16.90;10.50;;;22.20;35.00;;;;;;5047486;28;20450;-45
2021/04/24 12:09:55;;;;;;;12.20;9.50;;;22.40;34.90;;;;;;5048632;28;20465;-46
2021/04/24 12:12:40;;;;;;;11.97;9.70;;;22.50;35.50;;;;;;5046877;28;20451;-45
2021/04/24 12:15:07;;;;;;;13.33;10.03;;;22.60;35.70;;;;;;5048696;28;20501;-45
2021/04/24 12:17:33;;;;;;;14.50;9.80;;;22.70;33.90;;;;;;5046571;28;20832;-45
2021/04/24 12:20:00;;;;;;;14.03;11.77;;;22.80;33.70;;;;;;5049320;28;20827;-45
2021/04/24 12:22:27;;;;;;;17.67;11.47;;;22.80;33.80;;;;;;5050388;28;20494;-45
2021/04/24 12:25:04;;;;;;;14.60;10.13;;;22.90;35.00;;;;;;5048569;28;20458;-45
2021/04/24 12:27:39;;;;;;;14.20;9.40;;;22.90;34.30;;;;;;5049458;28;20441;-45
2021/04/24 12:30:10;;;;;;;14.57;10.13;;;23.00;34.10;;;;;;5050271;28;20456;-45
2021/04/24 12:32:43;;;;;;;14.23;10.30;;;23.00;33.60;;;;;;5052354;28;20462;-46
2021/04/24 12:35:31;;;;;;;16.03;9.57;;;23.00;33.20;;;;;;5052506;28;20939;-45
2021/04/24 12:38:02;;;;;;;14.13;11.30;;;23.00;33.90;;;;;;5051221;28;20997;-45
2021/04/24 12:40:30;;;;;;;15.90;10.73;;;23.00;35.00;;;;;;5048156;28;20451;-45
2021/04/24 12:43:08;;;;;;;17.37;11.07;;;23.00;33.80;;;;;;5050273;28;20445;-45
2021/04/24 12:45:37;;;;;;;18.63;10.40;;;23.00;33.70;;;;;;5052118;28;20935;-46
2021/04/24 12:48:05;;;;;;;13.77;10.10;;;22.90;35.20;;;;;;5052960;28;21004;-45